createdAt,value
2022-08-26T00:00:44.616Z,3.78
2022-08-26T00:03:47.536Z,3.40
2022-08-26T00:06:49.082Z,5.03
2022-08-26T00:09:54.378Z,5.57
2022-08-26T00:12:56.980Z,4.00
2022-08-26T00:15:58.634Z,4.60
2022-08-26T00:19:00.099Z,4.32
2022-08-26T00:22:01.512Z,3.63
2022-08-26T00:25:04.614Z,5.55
2022-08-26T00:28:06.883Z,3.40
2022-08-26T00:31:11.046Z,3.88
2022-08-26T00:34:14.138Z,4.00
2022-08-26T00:40:25.486Z,6.03
2022-08-26T00:43:27.400Z,3.42
2022-08-26T00:46:33.720Z,4.13
2022-08-26T00:49:42.207Z,4.47
2022-08-26T00:52:44.870Z,3.83
2022-08-26T00:55:59.737Z,3.60
2022-08-26T00:59:06.168Z,3.88
2022-08-26T01:02:07.674Z,8.13
2022-08-26T01:05:23.164Z,4.40
2022-08-26T01:08:25.306Z,3.75
2022-08-26T01:11:29.428Z,4.82
2022-08-26T01:14:33.924Z,3.78
2022-08-26T01:17:38.337Z,3.33
2022-08-26T01:20:48.611Z,4.95
2022-08-26T01:23:51.741Z,4.38
2022-08-26T01:27:05.144Z,4.72
2022-08-26T01:30:07.261Z,3.40
2022-08-26T01:33:15.711Z,4.45
2022-08-26T01:36:17.322Z,5.18
2022-08-26T01:39:20.209Z,3.22
2022-08-26T01:42:23.888Z,4.10
2022-08-26T01:45:29.068Z,4.88
2022-08-26T01:48:34.641Z,4.13
2022-08-26T01:51:39.864Z,4.80
2022-08-26T01:54:41.477Z,3.40
2022-08-26T01:57:50.833Z,4.47
2022-08-26T02:00:58.590Z,4.32
2022-08-26T02:04:17.693Z,4.72
2022-08-26T02:07:21.466Z,4.88
2022-08-26T02:10:23.074Z,6.05
2022-08-26T02:13:29.945Z,3.58
2022-08-26T02:16:39.625Z,5.53
2022-08-26T02:19:48.302Z,4.78
2022-08-26T02:22:49.894Z,6.03
2022-08-26T02:25:57.802Z,4.60
2022-08-26T02:29:07.652Z,4.40
2022-08-26T02:32:10.179Z,3.75
2022-08-26T02:35:13.779Z,4.40
2022-08-26T02:38:19.886Z,3.38
2022-08-26T02:41:21.340Z,4.60
2022-08-26T02:44:25.778Z,4.20
2022-08-26T02:47:28.944Z,4.90
2022-08-26T02:50:30.626Z,6.05
2022-08-26T02:53:35.539Z,5.05
2022-08-26T02:56:37.338Z,4.15
2022-08-26T02:59:39.917Z,4.28
2022-08-26T03:02:41.678Z,4.80
2022-08-26T03:05:44.506Z,5.05
2022-08-26T03:08:46.729Z,3.55
2022-08-26T03:11:48.461Z,5.68
2022-08-26T03:14:50.584Z,3.88
2022-08-26T03:17:55.588Z,3.38
2022-08-26T03:21:04.153Z,3.55
2022-08-26T03:24:06.401Z,4.57
2022-08-26T03:27:07.937Z,5.93
2022-08-26T03:30:29.660Z,5.70
2022-08-26T03:33:31.201Z,4.25
2022-08-26T03:36:33.472Z,4.25
2022-08-26T03:39:36.862Z,5.18
2022-08-26T03:42:41.226Z,6.88
2022-08-26T03:45:46.920Z,6.28
2022-08-26T03:48:48.330Z,4.15
2022-08-26T03:51:51.510Z,6.30
2022-08-26T03:54:53.270Z,4.20
2022-08-26T03:57:55.023Z,4.65
2022-08-26T04:00:56.845Z,6.75
2022-08-26T04:04:00.610Z,4.47
2022-08-26T04:07:02.394Z,5.05
2022-08-26T04:10:04.962Z,5.22
2022-08-26T04:13:06.511Z,4.32
2022-08-26T04:16:08.059Z,5.53
2022-08-26T04:19:14.372Z,4.25
2022-08-26T04:22:15.962Z,4.70
2022-08-26T04:25:26.338Z,4.00
2022-08-26T04:28:29.365Z,5.22
2022-08-26T04:31:33.356Z,5.38
2022-08-26T04:34:35.470Z,3.92
2022-08-26T04:37:37.442Z,4.25
2022-08-26T04:40:46.867Z,5.18
2022-08-26T04:43:48.894Z,5.78
2022-08-26T04:46:50.542Z,7.30
2022-08-26T04:49:55.791Z,4.20
2022-08-26T04:52:59.309Z,5.35
2022-08-26T04:56:01.089Z,4.97
2022-08-26T04:59:06.097Z,6.35
2022-08-26T05:02:08.848Z,4.60
2022-08-26T05:05:10.728Z,4.38
2022-08-26T05:08:13.734Z,4.80
2022-08-26T05:11:15.585Z,7.05
2022-08-26T05:14:18.307Z,4.35
2022-08-26T05:17:20.545Z,6.63
2022-08-26T05:20:26.163Z,4.20
2022-08-26T05:23:28.578Z,6.45
2022-08-26T05:26:31.432Z,4.72
2022-08-26T05:29:33.175Z,4.38
2022-08-26T05:32:34.802Z,4.68
2022-08-26T05:35:38.285Z,3.58
2022-08-26T05:38:39.713Z,5.93
2022-08-26T05:41:43.158Z,4.90
2022-08-26T05:44:54.111Z,6.68
2022-08-26T05:47:57.609Z,4.88
2022-08-26T05:51:06.153Z,5.05
2022-08-26T05:54:07.619Z,10.00
2022-08-26T05:57:13.780Z,5.63
2022-08-26T06:00:16.128Z,5.75
2022-08-26T06:03:18.212Z,5.72
2022-08-26T06:06:27.830Z,6.45
2022-08-26T06:09:30.775Z,4.95
2022-08-26T06:12:33.636Z,5.82
2022-08-26T06:15:35.508Z,5.60
2022-08-26T06:18:39.908Z,5.60
2022-08-26T06:21:44.902Z,4.10
2022-08-26T06:25:04.821Z,9.10
2022-08-26T06:28:07.487Z,5.88
2022-08-26T06:31:08.955Z,5.25
2022-08-26T06:34:11.047Z,7.57
2022-08-26T06:37:12.518Z,6.00
2022-08-26T06:40:14.061Z,7.97
2022-08-26T06:43:17.724Z,7.53
2022-08-26T06:46:21.779Z,6.45
2022-08-26T06:49:27.147Z,5.13
2022-08-26T06:52:29.232Z,6.65
2022-08-26T06:55:31.960Z,6.38
2022-08-26T06:58:35.074Z,6.57
2022-08-26T07:01:44.518Z,7.15
2022-08-26T07:04:47.895Z,7.30
2022-08-26T07:07:49.605Z,6.05
2022-08-26T07:10:51.147Z,6.30
2022-08-26T07:13:58.930Z,7.88
2022-08-26T07:17:02.531Z,7.13
2022-08-26T07:20:07.436Z,5.40
2022-08-26T07:23:11.746Z,5.45
2022-08-26T07:26:19.182Z,5.43
2022-08-26T07:29:20.646Z,5.63
2022-08-26T07:32:25.983Z,5.53
2022-08-26T07:35:27.470Z,14.82
2022-08-26T07:38:29.051Z,7.45
2022-08-26T07:41:33.030Z,6.05
2022-08-26T07:44:35.335Z,5.30
2022-08-26T07:47:36.810Z,5.75
2022-08-26T07:50:49.309Z,5.45
2022-08-26T07:53:53.278Z,4.97
2022-08-26T07:56:56.100Z,5.75
2022-08-26T07:59:58.149Z,6.70
2022-08-26T08:03:00.870Z,5.80
2022-08-26T08:06:02.445Z,5.57
2022-08-26T08:09:05.287Z,7.05
2022-08-26T08:12:09.411Z,6.15
2022-08-26T08:15:16.781Z,5.22
2022-08-26T08:18:20.383Z,5.68
2022-08-26T08:21:26.209Z,5.25
2022-08-26T08:24:27.798Z,6.57
2022-08-26T08:27:29.384Z,7.30
2022-08-26T08:30:31.713Z,6.50
2022-08-26T08:33:36.615Z,7.07
2022-08-26T08:36:39.968Z,6.20
2022-08-26T08:39:43.092Z,7.03
2022-08-26T08:42:47.072Z,5.63
2022-08-26T08:46:00.416Z,4.88
2022-08-26T08:49:04.089Z,5.50
2022-08-26T08:52:29.462Z,5.35
2022-08-26T08:55:55.832Z,4.38
2022-08-26T08:59:04.465Z,5.00
2022-08-26T09:02:20.857Z,6.13
2022-08-26T09:05:22.477Z,5.18
2022-08-26T09:08:29.380Z,5.65
2022-08-26T09:11:31.015Z,5.95
2022-08-26T09:14:33.573Z,5.47
2022-08-26T09:17:46.777Z,4.78
2022-08-26T09:21:10.804Z,4.85
2022-08-26T09:24:13.978Z,5.28
2022-08-26T09:27:44.747Z,4.70
2022-08-26T09:30:57.805Z,5.18
2022-08-26T09:34:36.072Z,5.88
2022-08-26T09:41:05.278Z,4.95
2022-08-26T09:44:15.696Z,4.40
2022-08-26T09:47:23.199Z,4.13
2022-08-26T09:50:30.022Z,3.47
2022-08-26T09:53:36.491Z,3.42
2022-08-26T09:56:39.268Z,3.05
2022-08-26T09:59:40.796Z,5.18
2022-08-26T10:02:47.818Z,4.03
2022-08-26T10:06:06.950Z,4.38
2022-08-26T10:09:14.875Z,3.05
2022-08-26T10:12:21.675Z,4.53
2022-08-26T10:15:25.399Z,3.55
2022-08-26T10:18:40.247Z,3.33
2022-08-26T10:21:55.763Z,2.75
2022-08-26T10:25:01.176Z,4.45
2022-08-26T10:28:22.492Z,5.05
2022-08-26T10:31:42.388Z,4.65
2022-08-26T10:34:44.842Z,4.45
2022-08-26T10:37:55.642Z,4.82
2022-08-26T10:41:10.466Z,4.93
2022-08-26T10:44:14.979Z,4.53
2022-08-26T10:47:25.939Z,3.58
2022-08-26T10:50:35.224Z,4.13
2022-08-26T10:54:03.261Z,4.13
2022-08-26T10:57:09.591Z,6.05
2022-08-26T11:00:37.625Z,5.15
2022-08-26T11:04:02.133Z,6.47
2022-08-26T11:07:35.239Z,4.60
2022-08-26T11:10:56.728Z,8.02
2022-08-26T11:14:05.669Z,5.30
2022-08-26T11:17:11.643Z,3.95
2022-08-26T11:20:34.793Z,4.25
2022-08-26T11:23:38.273Z,6.53
2022-08-26T11:26:56.273Z,4.55
2022-08-26T11:30:06.946Z,5.97
2022-08-26T11:33:09.380Z,6.30
2022-08-26T11:36:28.156Z,6.15
2022-08-26T11:39:56.984Z,7.25
2022-08-26T11:43:03.203Z,4.45
2022-08-26T11:46:10.459Z,7.03
2022-08-26T11:49:12.964Z,8.20
2022-08-26T11:52:22.044Z,6.78
2022-08-26T11:55:24.228Z,7.22
2022-08-26T11:58:28.003Z,7.65
2022-08-26T12:01:41.766Z,9.23
2022-08-26T12:04:48.371Z,12.23
2022-08-26T12:07:51.602Z,6.97
2022-08-26T12:11:09.710Z,5.38
2022-08-26T12:14:24.297Z,4.95
2022-08-26T12:17:27.820Z,5.68
2022-08-26T12:20:46.471Z,7.80
2022-08-26T12:23:50.539Z,4.28
2022-08-26T12:27:18.082Z,5.57
2022-08-26T12:30:24.442Z,4.60
2022-08-26T12:33:28.805Z,6.05
2022-08-26T12:36:42.477Z,6.75
2022-08-26T12:39:46.200Z,8.15
2022-08-26T12:42:47.657Z,4.47
2022-08-26T12:45:58.368Z,5.43
2022-08-26T12:49:03.875Z,3.70
2022-08-26T12:52:09.359Z,6.38
2022-08-26T12:55:24.466Z,5.53
2022-08-26T12:58:35.153Z,5.13
2022-08-26T13:01:43.138Z,6.10
2022-08-26T13:04:46.084Z,4.32
2022-08-26T13:08:10.403Z,4.60
2022-08-26T13:11:20.076Z,8.05
2022-08-26T13:17:27.850Z,4.78
2022-08-26T13:20:29.792Z,5.97
2022-08-26T13:23:31.315Z,5.63
2022-08-26T13:26:33.086Z,4.88
2022-08-26T13:29:35.096Z,5.70
2022-08-26T13:32:36.943Z,4.28
2022-08-26T13:35:39.139Z,5.47
2022-08-26T13:38:40.618Z,7.43
2022-08-26T13:41:43.175Z,6.35
2022-08-26T13:44:47.691Z,3.67
2022-08-26T13:47:49.120Z,5.03
2022-08-26T13:50:51.786Z,3.72
2022-08-26T13:53:53.775Z,4.53
2022-08-26T13:56:55.235Z,7.05
2022-08-26T13:59:59.106Z,3.65
2022-08-26T14:03:00.991Z,4.68
2022-08-26T14:06:02.727Z,4.00
2022-08-26T14:09:04.835Z,6.63
2022-08-26T14:12:06.481Z,3.67
2022-08-26T14:15:08.454Z,3.83
2022-08-26T14:18:15.985Z,5.10
2022-08-26T14:21:18.795Z,5.65
2022-08-26T14:24:20.277Z,3.45
2022-08-26T14:27:21.692Z,4.18
2022-08-26T14:30:23.471Z,4.10
2022-08-26T14:33:28.816Z,3.75
2022-08-26T14:36:33.630Z,2.88
2022-08-26T14:39:35.656Z,4.00
2022-08-26T14:42:37.166Z,5.68
2022-08-26T14:48:49.671Z,4.05
2022-08-26T14:51:51.196Z,3.38
2022-08-26T14:54:55.018Z,8.30
2022-08-26T14:57:56.962Z,7.00
2022-08-26T15:00:58.453Z,6.82
2022-08-26T15:04:05.690Z,6.50
2022-08-26T15:07:07.855Z,6.05
2022-08-26T15:10:15.984Z,7.97
2022-08-26T15:13:17.432Z,5.57
2022-08-26T15:16:19.173Z,6.28
2022-08-26T15:19:23.733Z,7.20
2022-08-26T15:22:26.029Z,5.95
2022-08-26T15:25:31.282Z,8.98
2022-08-26T15:28:32.793Z,9.25
2022-08-26T15:31:34.453Z,7.72
2022-08-26T15:34:36.118Z,8.88
2022-08-26T15:37:38.904Z,6.75
2022-08-26T15:40:40.746Z,9.95
2022-08-26T15:43:42.225Z,7.72
2022-08-26T15:46:44.405Z,7.82
2022-08-26T15:49:46.061Z,7.47
2022-08-26T15:52:47.866Z,8.10
2022-08-26T15:55:49.901Z,6.35
2022-08-26T15:58:51.735Z,5.47
2022-08-26T16:01:59.136Z,5.70
2022-08-26T16:05:00.675Z,5.93
2022-08-26T16:08:03.526Z,5.93
2022-08-26T16:11:05.827Z,4.90
2022-08-26T16:14:07.716Z,5.38
2022-08-26T16:17:09.222Z,6.82
2022-08-26T16:20:10.932Z,5.45
2022-08-26T16:23:12.373Z,6.40
2022-08-26T16:26:17.536Z,7.03
2022-08-26T16:29:19.085Z,7.53
2022-08-26T16:32:20.642Z,7.03
2022-08-26T16:35:22.112Z,7.65
2022-08-26T16:38:23.766Z,11.30
2022-08-26T16:41:28.222Z,8.40
2022-08-26T16:44:30.826Z,8.48
2022-08-26T16:47:33.622Z,8.25
2022-08-26T16:50:37.461Z,8.52
2022-08-26T16:56:40.686Z,7.47
2022-08-26T16:59:42.153Z,10.93
2022-08-26T17:02:45.175Z,6.82
2022-08-26T17:05:46.715Z,9.38
2022-08-26T17:08:49.301Z,6.65
2022-08-26T17:11:51.302Z,7.15
2022-08-26T17:14:52.849Z,6.82
2022-08-26T17:17:55.083Z,6.15
2022-08-26T17:21:01.661Z,6.97
2022-08-26T17:24:04.688Z,6.78
2022-08-26T17:27:06.217Z,5.38
2022-08-26T17:30:08.915Z,6.50
2022-08-26T17:33:11.181Z,5.80
2022-08-26T17:36:12.901Z,6.45
2022-08-26T17:39:14.367Z,5.60
2022-08-26T17:42:16.082Z,5.20
2022-08-26T17:48:25.282Z,5.78
2022-08-26T17:51:27.496Z,5.50
2022-08-26T17:54:30.205Z,5.00
2022-08-26T17:57:35.077Z,4.95
2022-08-26T18:00:48.322Z,5.55
2022-08-26T18:03:49.930Z,6.00
2022-08-26T18:06:51.571Z,8.35
2022-08-26T18:09:53.046Z,6.43
2022-08-26T18:12:54.521Z,8.32
2022-08-26T18:15:56.198Z,7.05
2022-08-26T18:18:58.411Z,7.25
2022-08-26T18:21:59.912Z,7.85
2022-08-26T18:25:01.382Z,5.95
2022-08-26T18:28:03.108Z,7.25
2022-08-26T18:31:07.315Z,6.82
2022-08-26T18:34:12.780Z,7.32
2022-08-26T18:37:14.699Z,8.15
2022-08-26T18:40:17.531Z,8.23
2022-08-26T18:43:19.093Z,7.75
2022-08-26T18:46:25.016Z,9.82
2022-08-26T18:49:26.953Z,8.82
2022-08-26T18:52:28.441Z,6.68
2022-08-26T18:55:29.946Z,7.90
2022-08-26T18:58:31.425Z,9.02
2022-08-26T19:01:34.823Z,9.23
2022-08-26T19:04:40.903Z,9.55
2022-08-26T19:07:44.118Z,6.40
2022-08-26T19:10:49.570Z,6.60
2022-08-26T19:13:51.070Z,8.85
2022-08-26T19:16:53.628Z,8.95
2022-08-26T19:19:55.257Z,8.68
2022-08-26T19:23:02.476Z,8.10
2022-08-26T19:26:08.497Z,8.43
2022-08-26T19:29:10.065Z,7.43
2022-08-26T19:32:13.110Z,9.18
2022-08-26T19:35:14.918Z,10.45
2022-08-26T19:38:16.494Z,10.35
2022-08-26T19:41:21.503Z,7.70
2022-08-26T19:44:42.093Z,10.00
2022-08-26T19:47:44.085Z,8.77
2022-08-26T19:50:48.389Z,11.50
2022-08-26T19:53:51.276Z,10.52
2022-08-26T19:56:53.422Z,8.02
2022-08-26T19:59:55.179Z,9.75
2022-08-26T20:02:56.743Z,8.90
2022-08-26T20:05:58.359Z,10.70
2022-08-26T20:09:00.026Z,11.82
2022-08-26T20:12:03.588Z,9.15
2022-08-26T20:15:05.855Z,10.48
2022-08-26T20:18:30.545Z,9.43
2022-08-26T20:21:38.012Z,9.45
2022-08-26T20:24:39.529Z,10.25
2022-08-26T20:27:40.954Z,10.48
2022-08-26T20:30:42.392Z,10.18
2022-08-26T20:33:46.192Z,10.20
2022-08-26T20:36:49.645Z,9.10
2022-08-26T20:39:51.159Z,9.20
2022-08-26T20:42:52.645Z,9.63
2022-08-26T20:45:54.285Z,9.20
2022-08-26T20:48:56.230Z,10.73
2022-08-26T20:52:00.499Z,11.77
2022-08-26T20:55:02.460Z,12.13
2022-08-26T20:58:04.278Z,13.50
2022-08-26T21:01:07.983Z,10.13
2022-08-26T21:04:13.857Z,8.95
2022-08-26T21:07:16.313Z,10.85
2022-08-26T21:10:19.248Z,11.43
2022-08-26T21:13:21.641Z,15.68
2022-08-26T21:16:23.187Z,9.07
2022-08-26T21:19:24.757Z,9.23
2022-08-26T21:22:26.416Z,8.95
2022-08-26T21:25:28.041Z,9.68
2022-08-26T21:28:29.834Z,10.50
2022-08-26T21:31:32.044Z,10.07
2022-08-26T21:34:33.902Z,9.77
2022-08-26T21:37:35.444Z,12.02
2022-08-26T21:40:36.918Z,9.75
2022-08-26T21:43:39.088Z,7.90
2022-08-26T21:46:41.026Z,7.97
2022-08-26T21:49:44.035Z,8.68
2022-08-26T21:52:45.544Z,9.07
2022-08-26T21:55:47.470Z,8.80
2022-08-26T21:58:49.850Z,8.77
2022-08-26T22:01:54.575Z,10.27
2022-08-26T22:04:56.409Z,10.18
2022-08-26T22:07:57.947Z,9.27
2022-08-26T22:11:00.718Z,11.15
2022-08-26T22:14:02.183Z,10.48
2022-08-26T22:17:03.806Z,8.90
2022-08-26T22:20:06.610Z,8.63
2022-08-26T22:23:18.312Z,10.23
2022-08-26T22:26:25.466Z,7.47
2022-08-26T22:29:27.374Z,10.98
2022-08-26T22:32:28.845Z,9.50
2022-08-26T22:35:30.973Z,8.95
2022-08-26T22:38:32.999Z,9.98
2022-08-26T22:41:35.255Z,8.50
2022-08-26T22:44:37.489Z,10.15
2022-08-26T22:47:40.119Z,9.05
2022-08-26T22:50:45.850Z,9.52
2022-08-26T22:53:47.421Z,8.00
2022-08-26T22:56:48.914Z,9.70
2022-08-26T22:59:50.360Z,7.93
2022-08-26T23:02:51.778Z,8.85
2022-08-26T23:05:53.452Z,8.43
2022-08-26T23:08:55.025Z,7.85
2022-08-26T23:11:56.749Z,8.90
2022-08-26T23:14:58.792Z,8.05
2022-08-26T23:18:00.267Z,5.95
2022-08-26T23:21:02.182Z,7.70
2022-08-26T23:24:04.814Z,7.68
2022-08-26T23:27:06.385Z,8.20
2022-08-26T23:30:12.663Z,8.63
2022-08-26T23:33:14.819Z,6.68
2022-08-26T23:36:17.927Z,8.77
2022-08-26T23:39:19.779Z,6.32
2022-08-26T23:42:21.914Z,8.20
2022-08-26T23:45:24.868Z,7.28
2022-08-26T23:48:26.402Z,5.40
2022-08-26T23:51:46.687Z,7.32
2022-08-26T23:54:49.973Z,6.25
2022-08-26T23:57:51.463Z,7.30
